Corpus Christi Naval Air Station/Truax Field
KNGP : now visible

Airfield :











YOU CAN JOIN US ON...

 
LOGIN :

Register | Disclaimer

   EN    FR    IT 

 









Legend :    VFR   Marginal VFR   IFR   Intensive IFR   Very Intensive IFR
Visi :
Ceiling :
>= 8 km
>= 3000ft
5 to 8 km
1000 to 3000 ft
1500m to 5 km
500 to 1000 ft
800 to 1500m
200 to 500 ft
< 800m
< 200 ft
Symbols :   Thunderstorms  Fog  Heavy snow  Heavy precipitations  Wind > 20 kt






- Airport Elevation : 18 ft


KNGP - Corpus Christi Naval Air Station/Truax Field

CURRENT METAR :
  • 070756Z AUTO 10005KT 10SM CLR 26/22 A3011 RMK AO2 SLP196 T02560217

EXPIRED METARs :
  • 070656Z AUTO 11005KT 10SM CLR 26/22 A3012 RMK AO2 SLP198 T02610217
  • 070556Z AUTO 12007KT 10SM CLR 27/22 A3013 RMK AO2 SLP201 T02720217 10283 20267 403170228 50003

TAF TAF KNGP
Valid from the 07 at 07:00 until the 08 at 07:00 UTC


0707/0807 13008KT 9999 VCSH SCT020 BKN180 OVC250 621806 511809 512709 QNH3008INS
TEMPO 0712/0714 05012KT 8000 -SHRA BKN025 BKN150 OVC250
BECMG 0714/0716 06010G20KT 9999 VCSH SCT035 SCT120 BKN180 OVC250 641509 551809 552709 QNH3002INS
BECMG 0800/0802 11013KT 9999 NSW SCT180 BKN250 QNH3006INS AUTOMATED SENSOR METWATCH 0707 TIL 0711 T24/0712Z T31/0720Z FN00253
KZHU FIR / North America



MET'MAP, your aeronautical weather chart ! - Copyright ORBIFLY December 2007 - Disclaimer

ORBIFLY MET'MAP TEAM :

Programming & Development : Alexandra Zaïnal
Original concept : Baudouin d'Aumeries
Technical & hardware support : Manuel Goepfert
Assistance : Marc-Olivier Méhu




SOURCES & CREDITS :

   NOAA       Earth
Advisory